Portada
METAR-TAF:

METAR-TAF

Aeropuertos :

Aeropuerto Internacional de Nador

Nador, Marruecos

latitud: 34-59-20N, longitud: 003-01-42W, altitud: 175 m

Observación

El informe se hizo hace 1 hora y 10 minutos, a las 11:00 UTC
Viento 5 kt del noroeste
Temperatura 25°C
Humedad 44%
Presión 1014 hPa
Visibilidad 10 km o más
Cielo nuboso a una altura de 2000 ft
Nubes dispersas a una altura de 4000 ft

METAR: GMMW 261100Z 31005KT 9999 BKN020 SCT040 25/12 Q1014 NOSIG

Hora: 13:10 (12:10 UTC)

Pronóstico

El informe se hizo hace 1 hora y 10 minutos, a las 11:00 UTC
Pronóstico válido del 26 a las 12 UTC al 27 a las 18 UTC
Viento 5 kt del noroeste
Visibilidad 10 km o más
Cielo nuboso a una altura de 2300 ft
Evolucionando progresivamente
del 26 a las 16 UTC al 26 a las 18 UTC
Nubes dispersas a una altura de 3000 ft

TAF: GMMW 261100Z 2612/2718 31005KT 9999 BKN023 BECMG 2616/2618 SCT030

Observaciones y pronósticos meteorológicos de más de 4000 aeropuertos (mensajes METAR y TAF).

Los puntos amarillos y rojos representan las estaciones disponibles.

Ponga el ratón en el punto deseado para ver el nombre de la estación.

Haga clic para ver las observaciones y los pronósticos meteorológicos.

Para cambiar el mapa : haga clic en los botones verdes con una cruz de color negro para hacer un zoom, en el botón verde con un guión para alejar o en las flechas verdes para mapas adyacentes.


METAR-TAF: